sensor_id;sensor_type;location;lat;lon;timestamp;P1;durP1;ratioP1;P2;durP2;ratioP2
55063;SDS011;40963;52.168;21.296;2022-10-22T00:00:22;33.78;;;17.58;;
55063;SDS011;40963;52.168;21.296;2022-10-22T00:02:48;30.77;;;17.27;;
55063;SDS011;40963;52.168;21.296;2022-10-22T00:05:14;32.00;;;15.75;;
55063;SDS011;40963;52.168;21.296;2022-10-22T00:07:39;32.58;;;16.63;;
55063;SDS011;40963;52.168;21.296;2022-10-22T00:10:05;38.05;;;17.52;;
55063;SDS011;40963;52.168;21.296;2022-10-22T00:12:32;37.55;;;17.55;;
55063;SDS011;40963;52.168;21.296;2022-10-22T00:14:58;35.17;;;17.50;;
55063;SDS011;40963;52.168;21.296;2022-10-22T00:17:23;32.90;;;16.80;;
55063;SDS011;40963;52.168;21.296;2022-10-22T00:19:49;33.28;;;17.15;;
55063;SDS011;40963;52.168;21.296;2022-10-22T00:22:15;34.33;;;17.23;;
55063;SDS011;40963;52.168;21.296;2022-10-22T00:24:40;36.05;;;17.15;;
55063;SDS011;40963;52.168;21.296;2022-10-22T00:27:07;34.13;;;17.60;;
55063;SDS011;40963;52.168;21.296;2022-10-22T00:29:34;30.60;;;16.30;;
55063;SDS011;40963;52.168;21.296;2022-10-22T00:31:59;37.20;;;17.40;;
55063;SDS011;40963;52.168;21.296;2022-10-22T00:34:25;32.60;;;17.52;;
55063;SDS011;40963;52.168;21.296;2022-10-22T00:36:51;37.65;;;18.13;;
55063;SDS011;40963;52.168;21.296;2022-10-22T00:39:18;36.95;;;18.08;;
55063;SDS011;40963;52.168;21.296;2022-10-22T00:41:45;36.70;;;17.13;;
55063;SDS011;40963;52.168;21.296;2022-10-22T00:47:15;34.00;;;17.95;;
55063;SDS011;40963;52.168;21.296;2022-10-22T00:49:42;36.42;;;17.52;;
55063;SDS011;40963;52.168;21.296;2022-10-22T00:52:10;35.13;;;17.13;;
55063;SDS011;40963;52.168;21.296;2022-10-22T00:54:36;35.50;;;18.48;;
55063;SDS011;40963;52.168;21.296;2022-10-22T00:57:03;34.17;;;17.15;;
55063;SDS011;40963;52.168;21.296;2022-10-22T00:59:29;32.65;;;16.90;;
55063;SDS011;40963;52.168;21.296;2022-10-22T01:01:56;34.03;;;18.00;;
55063;SDS011;40963;52.168;21.296;2022-10-22T01:04:21;34.92;;;17.70;;
55063;SDS011;40963;52.168;21.296;2022-10-22T01:06:47;32.63;;;17.40;;
55063;SDS011;40963;52.168;21.296;2022-10-22T01:09:30;32.20;;;17.30;;
55063;SDS011;40963;52.168;21.296;2022-10-22T01:14:44;35.30;;;17.85;;
55063;SDS011;40963;52.168;21.296;2022-10-22T01:17:20;35.88;;;18.92;;
55063;SDS011;40963;52.168;21.296;2022-10-22T01:26:36;38.05;;;18.58;;
55063;SDS011;40963;52.168;21.296;2022-10-22T01:28:48;36.38;;;19.83;;
55063;SDS011;40963;52.168;21.296;2022-10-22T01:31:15;41.80;;;19.63;;
55063;SDS011;40963;52.168;21.296;2022-10-22T01:33:42;37.33;;;19.83;;
55063;SDS011;40963;52.168;21.296;2022-10-22T01:36:10;35.00;;;17.45;;
55063;SDS011;40963;52.168;21.296;2022-10-22T01:38:37;39.15;;;20.00;;
55063;SDS011;40963;52.168;21.296;2022-10-22T01:41:04;44.80;;;20.25;;
55063;SDS011;40963;52.168;21.296;2022-10-22T01:43:31;36.63;;;19.20;;
55063;SDS011;40963;52.168;21.296;2022-10-22T01:45:57;37.55;;;19.52;;
55063;SDS011;40963;52.168;21.296;2022-10-22T01:51:50;37.75;;;18.67;;
55063;SDS011;40963;52.168;21.296;2022-10-22T01:56:55;34.17;;;19.38;;
55063;SDS011;40963;52.168;21.296;2022-10-22T02:02:28;36.30;;;19.77;;
55063;SDS011;40963;52.168;21.296;2022-10-22T02:04:59;38.17;;;19.90;;
55063;SDS011;40963;52.168;21.296;2022-10-22T02:07:46;42.38;;;19.98;;
55063;SDS011;40963;52.168;21.296;2022-10-22T02:10:15;35.38;;;18.92;;
55063;SDS011;40963;52.168;21.296;2022-10-22T02:12:42;37.88;;;18.45;;
55063;SDS011;40963;52.168;21.296;2022-10-22T02:15:13;35.17;;;18.45;;
55063;SDS011;40963;52.168;21.296;2022-10-22T02:17:41;41.28;;;19.75;;
55063;SDS011;40963;52.168;21.296;2022-10-22T02:20:10;33.53;;;17.88;;
55063;SDS011;40963;52.168;21.296;2022-10-22T02:22:40;40.50;;;19.17;;
55063;SDS011;40963;52.168;21.296;2022-10-22T02:25:07;35.70;;;19.42;;
55063;SDS011;40963;52.168;21.296;2022-10-22T02:27:42;37.50;;;18.73;;
55063;SDS011;40963;52.168;21.296;2022-10-22T02:30:16;39.10;;;19.58;;
55063;SDS011;40963;52.168;21.296;2022-10-22T02:32:49;39.38;;;18.85;;
55063;SDS011;40963;52.168;21.296;2022-10-22T02:35:16;37.60;;;18.25;;
55063;SDS011;40963;52.168;21.296;2022-10-22T02:37:45;36.45;;;19.70;;
55063;SDS011;40963;52.168;21.296;2022-10-22T02:40:11;34.90;;;18.95;;
55063;SDS011;40963;52.168;21.296;2022-10-22T02:42:38;33.65;;;18.15;;
55063;SDS011;40963;52.168;21.296;2022-10-22T02:45:06;37.50;;;17.92;;
55063;SDS011;40963;52.168;21.296;2022-10-22T02:47:31;34.05;;;18.42;;
55063;SDS011;40963;52.168;21.296;2022-10-22T02:49:57;38.53;;;18.60;;
55063;SDS011;40963;52.168;21.296;2022-10-22T02:52:23;39.05;;;18.75;;
55063;SDS011;40963;52.168;21.296;2022-10-22T02:54:48;36.00;;;19.05;;
55063;SDS011;40963;52.168;21.296;2022-10-22T02:57:14;37.88;;;18.48;;
55063;SDS011;40963;52.168;21.296;2022-10-22T02:59:40;37.50;;;19.13;;
55063;SDS011;40963;52.168;21.296;2022-10-22T03:02:05;39.80;;;18.75;;
55063;SDS011;40963;52.168;21.296;2022-10-22T03:04:31;34.05;;;20.05;;
55063;SDS011;40963;52.168;21.296;2022-10-22T03:06:57;37.58;;;19.38;;
55063;SDS011;40963;52.168;21.296;2022-10-22T03:09:22;38.70;;;19.42;;
55063;SDS011;40963;52.168;21.296;2022-10-22T03:11:48;36.58;;;19.00;;
55063;SDS011;40963;52.168;21.296;2022-10-22T03:14:14;46.00;;;19.38;;
55063;SDS011;40963;52.168;21.296;2022-10-22T03:16:39;37.75;;;20.40;;
55063;SDS011;40963;52.168;21.296;2022-10-22T03:19:05;35.83;;;19.33;;
55063;SDS011;40963;52.168;21.296;2022-10-22T03:21:33;36.63;;;19.35;;
55063;SDS011;40963;52.168;21.296;2022-10-22T03:24:10;41.90;;;19.80;;
55063;SDS011;40963;52.168;21.296;2022-10-22T03:26:38;39.58;;;19.95;;
55063;SDS011;40963;52.168;21.296;2022-10-22T03:29:05;39.90;;;19.92;;
55063;SDS011;40963;52.168;21.296;2022-10-22T03:31:31;41.47;;;20.30;;
55063;SDS011;40963;52.168;21.296;2022-10-22T03:33:56;35.83;;;20.05;;
55063;SDS011;40963;52.168;21.296;2022-10-22T03:36:22;33.03;;;19.33;;
55063;SDS011;40963;52.168;21.296;2022-10-22T03:38:48;40.00;;;20.48;;
55063;SDS011;40963;52.168;21.296;2022-10-22T03:41:14;37.75;;;20.17;;
55063;SDS011;40963;52.168;21.296;2022-10-22T03:43:39;36.17;;;19.73;;
55063;SDS011;40963;52.168;21.296;2022-10-22T03:46:05;39.45;;;19.20;;
55063;SDS011;40963;52.168;21.296;2022-10-22T03:48:31;36.50;;;20.35;;
55063;SDS011;40963;52.168;21.296;2022-10-22T03:50:56;40.80;;;20.30;;
55063;SDS011;40963;52.168;21.296;2022-10-22T03:53:22;45.42;;;21.88;;
55063;SDS011;40963;52.168;21.296;2022-10-22T03:55:48;38.08;;;20.58;;
55063;SDS011;40963;52.168;21.296;2022-10-22T03:58:13;40.65;;;20.48;;
55063;SDS011;40963;52.168;21.296;2022-10-22T04:00:39;41.65;;;22.38;;
55063;SDS011;40963;52.168;21.296;2022-10-22T04:03:04;46.30;;;22.88;;
55063;SDS011;40963;52.168;21.296;2022-10-22T04:05:31;43.92;;;22.77;;
55063;SDS011;40963;52.168;21.296;2022-10-22T04:07:57;41.47;;;23.00;;
55063;SDS011;40963;52.168;21.296;2022-10-22T04:10:23;48.40;;;23.27;;
55063;SDS011;40963;52.168;21.296;2022-10-22T04:12:49;43.65;;;21.58;;
55063;SDS011;40963;52.168;21.296;2022-10-22T04:15:15;41.95;;;21.40;;
55063;SDS011;40963;52.168;21.296;2022-10-22T04:17:40;41.63;;;22.33;;
55063;SDS011;40963;52.168;21.296;2022-10-22T04:20:06;44.63;;;22.83;;
55063;SDS011;40963;52.168;21.296;2022-10-22T04:22:33;45.65;;;22.65;;
55063;SDS011;40963;52.168;21.296;2022-10-22T04:24:59;41.10;;;21.90;;
55063;SDS011;40963;52.168;21.296;2022-10-22T04:27:27;42.65;;;21.95;;
55063;SDS011;40963;52.168;21.296;2022-10-22T04:29:54;39.50;;;21.55;;
55063;SDS011;40963;52.168;21.296;2022-10-22T04:32:19;45.40;;;22.45;;
55063;SDS011;40963;52.168;21.296;2022-10-22T04:34:45;44.97;;;21.90;;
55063;SDS011;40963;52.168;21.296;2022-10-22T04:37:11;49.20;;;23.23;;
55063;SDS011;40963;52.168;21.296;2022-10-22T04:39:36;50.63;;;23.25;;
55063;SDS011;40963;52.168;21.296;2022-10-22T04:42:02;46.67;;;22.40;;
55063;SDS011;40963;52.168;21.296;2022-10-22T04:44:28;46.17;;;23.20;;
55063;SDS011;40963;52.168;21.296;2022-10-22T04:46:53;47.55;;;22.83;;
55063;SDS011;40963;52.168;21.296;2022-10-22T04:49:19;48.78;;;23.48;;
55063;SDS011;40963;52.168;21.296;2022-10-22T04:51:45;46.15;;;23.40;;
55063;SDS011;40963;52.168;21.296;2022-10-22T04:54:10;50.33;;;23.98;;
55063;SDS011;40963;52.168;21.296;2022-10-22T04:56:36;44.55;;;22.98;;
55063;SDS011;40963;52.168;21.296;2022-10-22T04:59:03;43.38;;;21.92;;
55063;SDS011;40963;52.168;21.296;2022-10-22T05:01:40;44.92;;;23.30;;
55063;SDS011;40963;52.168;21.296;2022-10-22T05:04:08;47.85;;;22.55;;
55063;SDS011;40963;52.168;21.296;2022-10-22T05:06:36;42.33;;;22.38;;
55063;SDS011;40963;52.168;21.296;2022-10-22T05:09:03;43.28;;;22.05;;
55063;SDS011;40963;52.168;21.296;2022-10-22T05:11:32;51.13;;;22.35;;
55063;SDS011;40963;52.168;21.296;2022-10-22T05:14:01;48.60;;;22.42;;
55063;SDS011;40963;52.168;21.296;2022-10-22T05:16:30;40.25;;;22.15;;
55063;SDS011;40963;52.168;21.296;2022-10-22T05:18:57;49.75;;;22.80;;
55063;SDS011;40963;52.168;21.296;2022-10-22T05:21:24;42.05;;;21.95;;
55063;SDS011;40963;52.168;21.296;2022-10-22T05:23:50;40.78;;;22.05;;
55063;SDS011;40963;52.168;21.296;2022-10-22T05:26:21;39.05;;;21.60;;
55063;SDS011;40963;52.168;21.296;2022-10-22T05:28:49;40.55;;;21.95;;
55063;SDS011;40963;52.168;21.296;2022-10-22T05:31:15;46.88;;;23.92;;
55063;SDS011;40963;52.168;21.296;2022-10-22T05:33:42;48.88;;;23.17;;
55063;SDS011;40963;52.168;21.296;2022-10-22T05:36:10;49.00;;;25.15;;
55063;SDS011;40963;52.168;21.296;2022-10-22T05:38:37;43.00;;;23.60;;
55063;SDS011;40963;52.168;21.296;2022-10-22T05:41:04;53.38;;;24.17;;
55063;SDS011;40963;52.168;21.296;2022-10-22T05:43:31;45.63;;;24.25;;
55063;SDS011;40963;52.168;21.296;2022-10-22T05:46:07;41.08;;;22.55;;
55063;SDS011;40963;52.168;21.296;2022-10-22T05:48:39;44.15;;;23.08;;
55063;SDS011;40963;52.168;21.296;2022-10-22T05:51:05;46.30;;;23.70;;
55063;SDS011;40963;52.168;21.296;2022-10-22T05:53:32;52.38;;;24.00;;
55063;SDS011;40963;52.168;21.296;2022-10-22T05:56:00;46.58;;;23.48;;
55063;SDS011;40963;52.168;21.296;2022-10-22T05:58:29;49.55;;;24.48;;
55063;SDS011;40963;52.168;21.296;2022-10-22T06:01:10;49.85;;;24.35;;
55063;SDS011;40963;52.168;21.296;2022-10-22T06:03:59;44.47;;;23.98;;
55063;SDS011;40963;52.168;21.296;2022-10-22T06:06:44;45.65;;;24.13;;
55063;SDS011;40963;52.168;21.296;2022-10-22T06:12:01;48.50;;;23.53;;
55063;SDS011;40963;52.168;21.296;2022-10-22T06:14:27;48.40;;;24.02;;
55063;SDS011;40963;52.168;21.296;2022-10-22T06:16:53;48.60;;;24.10;;
55063;SDS011;40963;52.168;21.296;2022-10-22T06:19:20;43.33;;;23.25;;
55063;SDS011;40963;52.168;21.296;2022-10-22T06:21:47;45.30;;;23.88;;
55063;SDS011;40963;52.168;21.296;2022-10-22T06:24:13;47.20;;;23.48;;
55063;SDS011;40963;52.168;21.296;2022-10-22T06:26:39;47.53;;;23.33;;
55063;SDS011;40963;52.168;21.296;2022-10-22T06:29:07;43.78;;;23.73;;
55063;SDS011;40963;52.168;21.296;2022-10-22T06:31:33;42.13;;;23.17;;
55063;SDS011;40963;52.168;21.296;2022-10-22T06:34:06;47.55;;;25.50;;
55063;SDS011;40963;52.168;21.296;2022-10-22T06:36:35;46.80;;;23.80;;
55063;SDS011;40963;52.168;21.296;2022-10-22T06:39:02;42.35;;;23.40;;
55063;SDS011;40963;52.168;21.296;2022-10-22T06:41:28;52.08;;;25.40;;
55063;SDS011;40963;52.168;21.296;2022-10-22T06:43:54;44.47;;;23.48;;
55063;SDS011;40963;52.168;21.296;2022-10-22T06:46:21;43.97;;;23.40;;
55063;SDS011;40963;52.168;21.296;2022-10-22T06:48:51;45.45;;;23.95;;
55063;SDS011;40963;52.168;21.296;2022-10-22T06:51:18;40.30;;;23.20;;
55063;SDS011;40963;52.168;21.296;2022-10-22T06:53:45;51.58;;;23.52;;
55063;SDS011;40963;52.168;21.296;2022-10-22T06:56:12;43.35;;;23.92;;
55063;SDS011;40963;52.168;21.296;2022-10-22T06:58:40;48.22;;;24.55;;
55063;SDS011;40963;52.168;21.296;2022-10-22T07:01:13;46.15;;;23.92;;
55063;SDS011;40963;52.168;21.296;2022-10-22T07:03:40;49.72;;;24.58;;
55063;SDS011;40963;52.168;21.296;2022-10-22T07:06:07;47.83;;;23.08;;
55063;SDS011;40963;52.168;21.296;2022-10-22T07:08:35;45.17;;;24.75;;
55063;SDS011;40963;52.168;21.296;2022-10-22T07:11:18;43.17;;;24.73;;
55063;SDS011;40963;52.168;21.296;2022-10-22T07:13:49;45.35;;;24.55;;
55063;SDS011;40963;52.168;21.296;2022-10-22T07:16:17;42.58;;;24.52;;
55063;SDS011;40963;52.168;21.296;2022-10-22T07:18:43;43.40;;;23.10;;
55063;SDS011;40963;52.168;21.296;2022-10-22T07:21:10;49.30;;;23.50;;
55063;SDS011;40963;52.168;21.296;2022-10-22T07:23:36;40.33;;;23.65;;
55063;SDS011;40963;52.168;21.296;2022-10-22T07:26:02;49.67;;;25.08;;
55063;SDS011;40963;52.168;21.296;2022-10-22T07:28:31;52.85;;;24.77;;
55063;SDS011;40963;52.168;21.296;2022-10-22T07:30:57;48.38;;;24.63;;
55063;SDS011;40963;52.168;21.296;2022-10-22T07:33:23;51.60;;;24.08;;
55063;SDS011;40963;52.168;21.296;2022-10-22T07:35:49;44.83;;;24.75;;
55063;SDS011;40963;52.168;21.296;2022-10-22T07:38:15;50.95;;;23.67;;
55063;SDS011;40963;52.168;21.296;2022-10-22T07:40:40;42.55;;;23.00;;
55063;SDS011;40963;52.168;21.296;2022-10-22T07:43:06;42.70;;;23.67;;
55063;SDS011;40963;52.168;21.296;2022-10-22T07:45:32;48.13;;;25.30;;
55063;SDS011;40963;52.168;21.296;2022-10-22T07:47:57;41.75;;;23.63;;
55063;SDS011;40963;52.168;21.296;2022-10-22T07:50:24;49.20;;;24.70;;
55063;SDS011;40963;52.168;21.296;2022-10-22T07:52:50;42.47;;;23.73;;
55063;SDS011;40963;52.168;21.296;2022-10-22T07:55:16;45.40;;;25.10;;
55063;SDS011;40963;52.168;21.296;2022-10-22T07:57:41;53.35;;;23.35;;
55063;SDS011;40963;52.168;21.296;2022-10-22T08:00:07;42.58;;;22.20;;
55063;SDS011;40963;52.168;21.296;2022-10-22T08:02:34;43.15;;;22.92;;
55063;SDS011;40963;52.168;21.296;2022-10-22T08:04:59;47.22;;;23.92;;
55063;SDS011;40963;52.168;21.296;2022-10-22T08:07:25;44.25;;;24.67;;
55063;SDS011;40963;52.168;21.296;2022-10-22T08:09:50;46.53;;;22.23;;
55063;SDS011;40963;52.168;21.296;2022-10-22T08:12:16;42.67;;;23.45;;
55063;SDS011;40963;52.168;21.296;2022-10-22T08:14:42;46.17;;;24.33;;
55063;SDS011;40963;52.168;21.296;2022-10-22T08:17:07;42.22;;;22.55;;
55063;SDS011;40963;52.168;21.296;2022-10-22T08:19:33;42.65;;;23.02;;
55063;SDS011;40963;52.168;21.296;2022-10-22T08:21:59;36.50;;;20.40;;
55063;SDS011;40963;52.168;21.296;2022-10-22T08:24:25;47.58;;;23.13;;
55063;SDS011;40963;52.168;21.296;2022-10-22T08:26:52;42.83;;;22.55;;
55063;SDS011;40963;52.168;21.296;2022-10-22T08:29:20;42.15;;;22.55;;
55063;SDS011;40963;52.168;21.296;2022-10-22T08:31:47;41.95;;;21.85;;
55063;SDS011;40963;52.168;21.296;2022-10-22T08:34:13;40.28;;;22.33;;
55063;SDS011;40963;52.168;21.296;2022-10-22T08:36:39;40.80;;;22.42;;
55063;SDS011;40963;52.168;21.296;2022-10-22T08:39:05;36.58;;;20.85;;
55063;SDS011;40963;52.168;21.296;2022-10-22T08:41:30;40.15;;;22.15;;
55063;SDS011;40963;52.168;21.296;2022-10-22T08:44:04;38.22;;;21.23;;
55063;SDS011;40963;52.168;21.296;2022-10-22T08:49:27;44.70;;;20.73;;
55063;SDS011;40963;52.168;21.296;2022-10-22T08:51:57;39.80;;;20.63;;
55063;SDS011;40963;52.168;21.296;2022-10-22T08:54:27;34.72;;;20.08;;
55063;SDS011;40963;52.168;21.296;2022-10-22T08:57:10;34.10;;;20.00;;
55063;SDS011;40963;52.168;21.296;2022-10-22T09:00:01;33.63;;;20.20;;
55063;SDS011;40963;52.168;21.296;2022-10-22T09:02:38;37.28;;;19.48;;
55063;SDS011;40963;52.168;21.296;2022-10-22T09:08:10;35.28;;;19.92;;
55063;SDS011;40963;52.168;21.296;2022-10-22T09:10:39;32.97;;;19.23;;
55063;SDS011;40963;52.168;21.296;2022-10-22T09:13:13;36.08;;;20.42;;
55063;SDS011;40963;52.168;21.296;2022-10-22T09:15:42;48.00;;;21.20;;
55063;SDS011;40963;52.168;21.296;2022-10-22T09:18:20;39.08;;;20.10;;
55063;SDS011;40963;52.168;21.296;2022-10-22T09:20:54;43.33;;;20.35;;
55063;SDS011;40963;52.168;21.296;2022-10-22T09:26:15;37.80;;;18.50;;
55063;SDS011;40963;52.168;21.296;2022-10-22T09:28:41;35.58;;;18.63;;
55063;SDS011;40963;52.168;21.296;2022-10-22T09:31:11;37.03;;;18.80;;
55063;SDS011;40963;52.168;21.296;2022-10-22T09:33:38;37.85;;;18.92;;
55063;SDS011;40963;52.168;21.296;2022-10-22T09:36:04;33.60;;;18.88;;
55063;SDS011;40963;52.168;21.296;2022-10-22T09:38:33;38.55;;;20.50;;
55063;SDS011;40963;52.168;21.296;2022-10-22T09:41:03;36.15;;;18.55;;
55063;SDS011;40963;52.168;21.296;2022-10-22T09:43:29;32.95;;;18.70;;
55063;SDS011;40963;52.168;21.296;2022-10-22T09:45:57;35.08;;;19.02;;
55063;SDS011;40963;52.168;21.296;2022-10-22T09:48:40;33.40;;;16.77;;
55063;SDS011;40963;52.168;21.296;2022-10-22T09:51:19;35.63;;;17.45;;
55063;SDS011;40963;52.168;21.296;2022-10-22T09:53:56;33.03;;;17.02;;
55063;SDS011;40963;52.168;21.296;2022-10-22T09:56:28;63.72;;;30.65;;
55063;SDS011;40963;52.168;21.296;2022-10-22T09:58:59;30.17;;;17.05;;
55063;SDS011;40963;52.168;21.296;2022-10-22T10:01:30;28.15;;;16.17;;
55063;SDS011;40963;52.168;21.296;2022-10-22T10:04:07;36.03;;;18.67;;
55063;SDS011;40963;52.168;21.296;2022-10-22T10:06:39;34.28;;;18.63;;
55063;SDS011;40963;52.168;21.296;2022-10-22T10:09:16;36.33;;;22.08;;
55063;SDS011;40963;52.168;21.296;2022-10-22T10:23:08;27.38;;;15.93;;
55063;SDS011;40963;52.168;21.296;2022-10-22T10:31:27;34.65;;;15.55;;
55063;SDS011;40963;52.168;21.296;2022-10-22T10:45:11;28.35;;;16.05;;
55063;SDS011;40963;52.168;21.296;2022-10-22T10:47:52;33.25;;;16.13;;
55063;SDS011;40963;52.168;21.296;2022-10-22T10:50:49;34.03;;;16.20;;
55063;SDS011;40963;52.168;21.296;2022-10-22T11:01:50;35.10;;;17.02;;
55063;SDS011;40963;52.168;21.296;2022-10-22T11:04:44;38.83;;;16.42;;
55063;SDS011;40963;52.168;21.296;2022-10-22T11:07:35;31.80;;;16.17;;
55063;SDS011;40963;52.168;21.296;2022-10-22T11:10:22;38.17;;;17.35;;
55063;SDS011;40963;52.168;21.296;2022-10-22T11:12:57;32.25;;;17.33;;
55063;SDS011;40963;52.168;21.296;2022-10-22T11:15:45;29.52;;;16.73;;
55063;SDS011;40963;52.168;21.296;2022-10-22T11:20:47;43.50;;;26.52;;
55063;SDS011;40963;52.168;21.296;2022-10-22T11:23:21;41.40;;;20.52;;
55063;SDS011;40963;52.168;21.296;2022-10-22T11:25:58;45.53;;;22.50;;
55063;SDS011;40963;52.168;21.296;2022-10-22T11:28:27;35.45;;;19.40;;
55063;SDS011;40963;52.168;21.296;2022-10-22T11:31:09;41.72;;;20.15;;
55063;SDS011;40963;52.168;21.296;2022-10-22T11:36:39;34.40;;;21.45;;
55063;SDS011;40963;52.168;21.296;2022-10-22T11:39:05;49.38;;;22.80;;
55063;SDS011;40963;52.168;21.296;2022-10-22T11:41:32;32.80;;;17.52;;
55063;SDS011;40963;52.168;21.296;2022-10-22T11:44:18;43.90;;;21.52;;
55063;SDS011;40963;52.168;21.296;2022-10-22T11:46:54;37.03;;;18.70;;
55063;SDS011;40963;52.168;21.296;2022-10-22T11:49:23;57.08;;;24.20;;
55063;SDS011;40963;52.168;21.296;2022-10-22T11:54:56;128.77;;;33.03;;
55063;SDS011;40963;52.168;21.296;2022-10-22T11:57:35;68.97;;;26.63;;
55063;SDS011;40963;52.168;21.296;2022-10-22T12:00:09;133.10;;;42.15;;
55063;SDS011;40963;52.168;21.296;2022-10-22T12:03:14;94.72;;;33.28;;
55063;SDS011;40963;52.168;21.296;2022-10-22T12:08:42;82.93;;;32.72;;
55063;SDS011;40963;52.168;21.296;2022-10-22T12:11:25;191.15;;;52.92;;
55063;SDS011;40963;52.168;21.296;2022-10-22T12:16:57;173.43;;;53.10;;
55063;SDS011;40963;52.168;21.296;2022-10-22T12:20:29;55.15;;;23.75;;
55063;SDS011;40963;52.168;21.296;2022-10-22T12:24:54;43.47;;;19.33;;
55063;SDS011;40963;52.168;21.296;2022-10-22T12:27:33;41.25;;;20.50;;
55063;SDS011;40963;52.168;21.296;2022-10-22T12:29:59;35.92;;;19.15;;
55063;SDS011;40963;52.168;21.296;2022-10-22T12:32:35;40.40;;;19.13;;
55063;SDS011;40963;52.168;21.296;2022-10-22T12:35:06;37.13;;;18.73;;
55063;SDS011;40963;52.168;21.296;2022-10-22T12:37:40;36.50;;;19.77;;
55063;SDS011;40963;52.168;21.296;2022-10-22T12:40:14;31.23;;;17.73;;
55063;SDS011;40963;52.168;21.296;2022-10-22T12:42:55;35.28;;;18.60;;
55063;SDS011;40963;52.168;21.296;2022-10-22T12:45:25;35.67;;;18.10;;
55063;SDS011;40963;52.168;21.296;2022-10-22T12:47:56;58.25;;;23.80;;
55063;SDS011;40963;52.168;21.296;2022-10-22T12:50:31;41.35;;;20.05;;
55063;SDS011;40963;52.168;21.296;2022-10-22T12:53:14;30.52;;;17.77;;
55063;SDS011;40963;52.168;21.296;2022-10-22T12:55:56;71.68;;;26.80;;
55063;SDS011;40963;52.168;21.296;2022-10-22T12:58:26;38.05;;;19.52;;
55063;SDS011;40963;52.168;21.296;2022-10-22T13:03:34;35.05;;;18.45;;
55063;SDS011;40963;52.168;21.296;2022-10-22T13:06:41;56.92;;;24.02;;
55063;SDS011;40963;52.168;21.296;2022-10-22T13:11:30;48.95;;;21.63;;
55063;SDS011;40963;52.168;21.296;2022-10-22T13:14:04;50.63;;;23.85;;
55063;SDS011;40963;52.168;21.296;2022-10-22T13:19:37;115.07;;;47.80;;
55063;SDS011;40963;52.168;21.296;2022-10-22T13:22:24;95.55;;;54.85;;
55063;SDS011;40963;52.168;21.296;2022-10-22T13:24:55;86.07;;;39.67;;
55063;SDS011;40963;52.168;21.296;2022-10-22T13:27:24;146.75;;;52.08;;
55063;SDS011;40963;52.168;21.296;2022-10-22T13:29:53;49.63;;;23.73;;
55063;SDS011;40963;52.168;21.296;2022-10-22T13:32:27;168.25;;;48.50;;
55063;SDS011;40963;52.168;21.296;2022-10-22T13:35:03;143.27;;;41.13;;
55063;SDS011;40963;52.168;21.296;2022-10-22T13:37:30;56.07;;;23.37;;
55063;SDS011;40963;52.168;21.296;2022-10-22T13:39:58;56.70;;;22.85;;
55063;SDS011;40963;52.168;21.296;2022-10-22T13:42:24;138.90;;;37.85;;
55063;SDS011;40963;52.168;21.296;2022-10-22T13:44:49;169.38;;;48.53;;
55063;SDS011;40963;52.168;21.296;2022-10-22T13:47:20;158.20;;;41.53;;
55063;SDS011;40963;52.168;21.296;2022-10-22T13:49:54;190.73;;;50.13;;
55063;SDS011;40963;52.168;21.296;2022-10-22T13:53:04;127.55;;;45.03;;
55063;SDS011;40963;52.168;21.296;2022-10-22T13:55:27;105.38;;;42.08;;
55063;SDS011;40963;52.168;21.296;2022-10-22T13:57:59;86.15;;;35.33;;
55063;SDS011;40963;52.168;21.296;2022-10-22T14:00:35;48.15;;;23.70;;
55063;SDS011;40963;52.168;21.296;2022-10-22T14:03:03;46.83;;;22.08;;
55063;SDS011;40963;52.168;21.296;2022-10-22T14:05:30;66.05;;;28.98;;
55063;SDS011;40963;52.168;21.296;2022-10-22T14:07:58;58.30;;;24.70;;
55063;SDS011;40963;52.168;21.296;2022-10-22T14:10:24;51.90;;;23.58;;
55063;SDS011;40963;52.168;21.296;2022-10-22T14:12:50;41.03;;;20.25;;
55063;SDS011;40963;52.168;21.296;2022-10-22T14:15:20;43.85;;;21.92;;
55063;SDS011;40963;52.168;21.296;2022-10-22T14:17:52;41.92;;;21.35;;
55063;SDS011;40963;52.168;21.296;2022-10-22T14:20:27;34.30;;;19.33;;
55063;SDS011;40963;52.168;21.296;2022-10-22T14:22:54;36.08;;;17.85;;
55063;SDS011;40963;52.168;21.296;2022-10-22T14:25:21;34.53;;;18.05;;
55063;SDS011;40963;52.168;21.296;2022-10-22T14:27:49;30.70;;;17.08;;
55063;SDS011;40963;52.168;21.296;2022-10-22T14:30:16;40.45;;;18.02;;
55063;SDS011;40963;52.168;21.296;2022-10-22T14:32:44;39.38;;;17.80;;
55063;SDS011;40963;52.168;21.296;2022-10-22T14:35:11;28.23;;;16.60;;
55063;SDS011;40963;52.168;21.296;2022-10-22T14:37:38;29.70;;;17.65;;
55063;SDS011;40963;52.168;21.296;2022-10-22T14:40:05;43.67;;;18.05;;
55063;SDS011;40963;52.168;21.296;2022-10-22T14:42:32;32.58;;;16.98;;
55063;SDS011;40963;52.168;21.296;2022-10-22T14:45:27;56.75;;;23.13;;
55063;SDS011;40963;52.168;21.296;2022-10-22T14:47:52;128.27;;;37.85;;
55063;SDS011;40963;52.168;21.296;2022-10-22T14:50:21;119.68;;;37.05;;
55063;SDS011;40963;52.168;21.296;2022-10-22T14:52:48;105.68;;;33.65;;
55063;SDS011;40963;52.168;21.296;2022-10-22T14:55:15;85.80;;;28.92;;
55063;SDS011;40963;52.168;21.296;2022-10-22T14:57:44;43.97;;;18.27;;
55063;SDS011;40963;52.168;21.296;2022-10-22T15:00:11;36.95;;;21.08;;
55063;SDS011;40963;52.168;21.296;2022-10-22T15:02:41;81.10;;;31.20;;
55063;SDS011;40963;52.168;21.296;2022-10-22T15:05:07;58.08;;;26.33;;
55063;SDS011;40963;52.168;21.296;2022-10-22T15:07:33;50.58;;;23.63;;
55063;SDS011;40963;52.168;21.296;2022-10-22T15:09:59;42.05;;;20.60;;
55063;SDS011;40963;52.168;21.296;2022-10-22T15:12:25;47.00;;;22.58;;
55063;SDS011;40963;52.168;21.296;2022-10-22T15:14:50;49.63;;;24.33;;
55063;SDS011;40963;52.168;21.296;2022-10-22T15:17:16;41.42;;;21.98;;
55063;SDS011;40963;52.168;21.296;2022-10-22T15:19:42;44.28;;;23.15;;
55063;SDS011;40963;52.168;21.296;2022-10-22T15:22:09;39.67;;;21.05;;
55063;SDS011;40963;52.168;21.296;2022-10-22T15:24:38;43.60;;;21.88;;
55063;SDS011;40963;52.168;21.296;2022-10-22T15:27:07;60.85;;;30.75;;
55063;SDS011;40963;52.168;21.296;2022-10-22T15:29:33;55.47;;;27.60;;
55063;SDS011;40963;52.168;21.296;2022-10-22T15:31:59;68.38;;;35.47;;
55063;SDS011;40963;52.168;21.296;2022-10-22T15:36:53;77.45;;;33.97;;
55063;SDS011;40963;52.168;21.296;2022-10-22T15:39:21;57.58;;;26.55;;
55063;SDS011;40963;52.168;21.296;2022-10-22T15:41:47;298.52;;;64.72;;
55063;SDS011;40963;52.168;21.296;2022-10-22T15:44:14;286.38;;;68.90;;
55063;SDS011;40963;52.168;21.296;2022-10-22T15:46:41;183.45;;;48.35;;
55063;SDS011;40963;52.168;21.296;2022-10-22T15:49:07;183.45;;;51.38;;
55063;SDS011;40963;52.168;21.296;2022-10-22T15:51:32;207.30;;;57.05;;
55063;SDS011;40963;52.168;21.296;2022-10-22T15:53:58;153.68;;;46.20;;
55063;SDS011;40963;52.168;21.296;2022-10-22T15:56:24;217.60;;;57.42;;
55063;SDS011;40963;52.168;21.296;2022-10-22T15:58:56;114.97;;;38.53;;